ADDS METAR Data INFO
IDs: Format: Raw Decoded Include TAF

Data at: 1957 UTC 15 Dec 2017

KDUC 151935Z AUTO 31006KT 10SM CLR 10/M06 A3024 RMK AO2 T01031057
KDUC 151915Z AUTO 33007KT 10SM CLR 10/M05 A3025 RMK AO2 T01021049
KDUC 151855Z AUTO 28007KT 10SM CLR 10/M05 A3026 RMK AO2 T00951051
KDUC 151835Z AUTO 31007KT 10SM CLR 09/M06 A3027 RMK AO2 T00951060
KDUC 151815Z AUTO 31009KT 10SM CLR 09/M05 A3028 RMK AO2 T00901048
KDUC 151755Z AUTO 28008KT 10SM CLR 09/M04 A3029 RMK AO2 T00881039 10092 21029
KDUC 151735Z AUTO 33009KT 280V340 10SM CLR 08/M03 A3031 RMK AO2 T00801032
KDUC 151715Z AUTO 31008KT 10SM CLR 08/M03 A3031 RMK AO2 T00771030
KDUC 151655Z AUTO 32008KT 10SM CLR 07/M03 A3032 RMK AO2 T00681027
KDUC 151635Z AUTO 33008KT 10SM CLR 06/M02 A3033 RMK AO2 T00591024
KDUC 151615Z AUTO 34009KT 10SM CLR 05/M02 A3033 RMK AO2 T00511024
KDUC 151555Z AUTO 34009KT 10SM CLR 04/M02 A3033 RMK AO2 T00391023
KDUC 151535Z AUTO 32008KT 10SM CLR 03/M02 A3033 RMK AO2 T00251023
KDUC 151515Z AUTO 33008KT 10SM CLR 02/M03 A3033 RMK AO2 T00171025
KDUC 151455Z AUTO 32008KT 10SM CLR 00/M03 A3032 RMK AO2 T00051030
KDUC 151435Z AUTO 32010KT 10SM CLR 00/M04 A3032 RMK AO2 T10041035
KDUC 151415Z AUTO 33008KT 10SM CLR M02/M04 A3032 RMK AO2 T10211044
KDUC 151355Z AUTO 32007KT 10SM CLR M03/M05 A3032 RMK AO2 T10271046
KDUC 151335Z AUTO 32008KT 10SM CLR M03/M05 A3032 RMK AO2 T10281047
KDUC 151315Z AUTO 31008KT 10SM CLR M02/M05 A3032 RMK AO2 T10241046
KDUC 151255Z AUTO 31007KT 10SM CLR M02/M05 A3032 RMK AO2 T10241045
KDUC 151235Z AUTO 32008KT 10SM CLR M02/M04 A3031 RMK AO2 T10191043
KDUC 151215Z AUTO 31007KT 10SM CLR M02/M04 A3031 RMK AO2 T10151041
KDUC 151155Z AUTO 31007KT 10SM CLR M02/M04 A3030 RMK AO2 T10171040 10011 21017
KDUC 151135Z AUTO 32007KT 10SM CLR M01/M04 A3029 RMK AO2 T10141039
KDUC 151115Z AUTO 32007KT 10SM CLR M01/M04 A3029 RMK AO2 T10111038
KDUC 151055Z AUTO 31007KT 10SM CLR M01/M04 A3030 RMK AO2 T10071035
KDUC 151035Z AUTO 32008KT 10SM CLR 00/M03 A3029 RMK AO2 T10041034
KDUC 151015Z AUTO 33009KT 10SM CLR 00/M03 A3028 RMK AO2 T10021033
KDUC 150955Z AUTO 32008KT 10SM CLR M01/M03 A3028 RMK AO2 T10061035
KDUC 150935Z AUTO 32008KT 10SM CLR M01/M04 A3028 RMK AO2 T10081036
KDUC 150915Z AUTO 32007KT 10SM CLR M01/M04 A3027 RMK AO2 T10061037
KDUC 150855Z AUTO 31007KT 10SM CLR M01/M04 A3027 RMK AO2 T10071039
KDUC 150835Z AUTO 32007KT 10SM CLR 00/M04 A3027 RMK AO2 T10041038
KDUC 150815Z AUTO 32007KT 10SM CLR 00/M04 A3026 RMK AO2 T10031038
KDUC 150755Z AUTO 31006KT 10SM CLR 00/M04 A3025 RMK AO2 T00051037
KDUC 150735Z AUTO 33007KT 10SM CLR 00/M04 A3025 RMK AO2 T00011040
KDUC 150715Z AUTO 32006KT 10SM CLR 00/M04 A3024 RMK AO2 T00021042
KDUC 150655Z AUTO 33006KT 10SM CLR 01/M04 A3025 RMK AO2 T00081041
KDUC 150635Z AUTO 31008KT 10SM CLR 00/M04 A3025 RMK AO2 T00021044
KDUC 150615Z AUTO 32007KT 10SM CLR 01/M04 A3024 RMK AO2 T00111042
KDUC 150555Z AUTO 32005KT 10SM CLR 01/M04 A3024 RMK AO2 T00121042 10078 20003
KDUC 150535Z AUTO 31005KT 10SM CLR 01/M04 A3023 RMK AO2 T00111042
KDUC 150515Z AUTO 29004KT 10SM CLR 01/M04 A3023 RMK AO2 T00101044
KDUC 150455Z AUTO 31004KT 10SM CLR 01/M04 A3023 RMK AO2 T00141042
KDUC 150435Z AUTO 32003KT 10SM SCT110 00/M05 A3022 RMK AO2 T00031045
KDUC 150415Z AUTO 31003KT 10SM BKN110 01/M05 A3022 RMK AO2 T00121045
KDUC 150355Z AUTO 31003KT 10SM SCT100 02/M04 A3021 RMK AO2 T00251041
KDUC 150335Z AUTO 31004KT 10SM CLR 02/M04 A3021 RMK AO2 T00201043
KDUC 150315Z AUTO 29003KT 10SM CLR 01/M05 A3021 RMK AO2 T00121046
KDUC 150255Z AUTO 31003KT 10SM CLR 02/M04 A3021 RMK AO2 T00181045
KDUC 150235Z AUTO 31003KT 10SM CLR 04/M04 A3021 RMK AO2 T00361041
KDUC 150215Z AUTO 30003KT 10SM CLR 03/M04 A3020 RMK AO2 T00311042
KDUC 150155Z AUTO 30003KT 10SM CLR 04/M04 A3020 RMK AO2 T00351043
KDUC 150135Z AUTO 36004KT 10SM CLR 06/M04 A3019 RMK AO2 T00551041
KDUC 150115Z AUTO 01004KT 10SM CLR 06/M04 A3019 RMK AO2 T00571042
KDUC 150055Z AUTO 01004KT 10SM CLR 06/M04 A3019 RMK AO2 T00641042
KDUC 150035Z AUTO 02005KT 10SM CLR 07/M04 A3018 RMK AO2 T00681041
KDUC 150015Z AUTO 01005KT 10SM CLR 07/M04 A3017 RMK AO2 T00751040
KDUC 142355Z AUTO 02004KT 10SM CLR 07/M04 A3017 RMK AO2 T00731040 10122 20072 401520027
KDUC 142335Z AUTO 01008KT 10SM CLR 08/M04 A3016 RMK AO2 T00821039
KDUC 142315Z AUTO 01008KT 10SM CLR 09/M04 A3015 RMK AO2 T00871036
KDUC 142255Z AUTO 01010G15KT 10SM CLR 09/M04 A3015 RMK AO2 T00951035
KDUC 142235Z AUTO 01012G16KT 10SM CLR 10/M04 A3015 RMK AO2 T00991037
KDUC 142215Z AUTO 02013KT 10SM CLR 10/M04 A3015 RMK AO2 T01031039
KDUC 142155Z AUTO 34012KT 10SM CLR 11/M04 A3014 RMK AO2 T01061036
KDUC 142135Z AUTO 35015KT 10SM CLR 11/M03 A3014 RMK AO2 T01071032
KDUC 142115Z AUTO 01015G22KT 10SM CLR 11/M04 A3013 RMK AO2 T01091035
KDUC 142055Z AUTO 34015G21KT 10SM CLR 11/M03 A3012 RMK AO2 T01111029
KDUC 142035Z AUTO 35017G20KT 10SM CLR 11/M03 A3012 RMK AO2 T01141029
KDUC 142015Z AUTO 35013G17KT 10SM CLR 11/M02 A3012 RMK AO2 T01141024
KDUC 141955Z AUTO 36013G17KT 10SM CLR 11/M03 A3014 RMK AO2 T01131025
KDUC 141935Z AUTO 35012KT 10SM CLR 11/M02 A3013 RMK AO2 T01141021
KDUC 141915Z AUTO 01012KT 10SM CLR 11/M02 A3014 RMK AO2 T01121021
KDUC 141855Z AUTO 35010KT 10SM CLR 11/M02 A3015 RMK AO2 T01091020
KDUC 141835Z AUTO 03013KT 10SM CLR 11/M02 A3015 RMK AO2 T01121019
KDUC 141815Z AUTO 36011KT 10SM CLR 11/M02 A3016 RMK AO2 T01101017
KDUC 141755Z AUTO 03012KT 10SM CLR 10/M02 A3017 RMK AO2 T01021018 10108 20027
KDUC 141735Z AUTO 04012KT 10SM CLR 10/M02 A3018 RMK AO2 T01001019
KDUC 141715Z AUTO 04011G16KT 10SM CLR 10/M02 A3018 RMK AO2 T00971016
KDUC 141655Z AUTO 02011KT 10SM CLR 09/M02 A3018 RMK AO2 T00951017
KDUC 141635Z AUTO 02009KT 10SM CLR 09/M02 A3018 RMK AO2 T00951016
KDUC 141615Z AUTO 03010KT 10SM CLR 09/M02 A3017 RMK AO2 T00911017
KDUC 141555Z AUTO 03012G17KT 10SM CLR 09/M02 A3016 RMK AO2 T00871019
KDUC 141535Z AUTO 02013G18KT 10SM CLR 08/M02 A3015 RMK AO2 T00821020
KDUC 141515Z AUTO 02012KT 10SM CLR 08/M02 A3015 RMK AO2 T00771021
KDUC 141455Z AUTO 02009KT 10SM CLR 07/M02 A3014 RMK AO2 T00661023
KDUC 141435Z AUTO 35004KT 10SM CLR 05/M03 A3014 RMK AO2 T00461029
KDUC 141415Z AUTO 36009KT 10SM CLR 04/M03 A3012 RMK AO2 T00401029
KDUC 141355Z AUTO 01007KT 10SM CLR 03/M03 A3010 RMK AO2 T00311033
KDUC 141335Z AUTO 36006KT 10SM CLR 03/M04 A3010 RMK AO2 T00281036
KDUC 141315Z AUTO 01007KT 10SM CLR 03/M04 A3008 RMK AO2 T00291037
KDUC 141255Z AUTO 02006KT 10SM CLR 04/M04 A3008 RMK AO2 T00381037
KDUC 141235Z AUTO 02009KT 10SM CLR 04/M04 A3006 RMK AO2 T00431037
KDUC 141215Z AUTO 02010KT 10SM CLR 05/M04 A3005 RMK AO2 T00451038
KDUC 141155Z AUTO 02010KT 10SM CLR 05/M04 A3004 RMK AO2 T00471038 10095 20047
KDUC 141135Z AUTO 02011KT 10SM CLR 05/M04 A3004 RMK AO2 T00511040
KDUC 141115Z AUTO 02010KT 10SM CLR 05/M04 A3002 RMK AO2 T00541040
KDUC 141055Z AUTO 02010KT 10SM CLR 05/M04 A3001 RMK AO2 T00551040
KDUC 141035Z AUTO 02010KT 10SM CLR 06/M04 A3001 RMK AO2 T00571042
KDUC 141015Z AUTO 02012KT 10SM CLR 06/M04 A2999 RMK AO2 T00621043
KDUC 140955Z AUTO 02011KT 10SM CLR 07/M04 A2998 RMK AO2 T00661044
KDUC 140935Z AUTO 03012KT 10SM CLR 07/M04 A2997 RMK AO2 T00701045
KDUC 140915Z AUTO 02014KT 10SM CLR 07/M05 A2996 RMK AO2 T00721046
KDUC 140855Z AUTO 02013KT 10SM CLR 08/M05 A2996 RMK AO2 T00781047
KDUC 140835Z AUTO 03012KT 10SM CLR 08/M05 A2996 RMK AO2 T00811048
KDUC 140815Z AUTO 02011KT 10SM CLR 08/M05 A2995 RMK AO2 T00811050